Etusivu
Satelliittikuvat 10 päivän ennusteetIlmastoMerisää Syklonit Salamointi LentoasematUKK Uutiskirje Muuta
Sää : Eurooppa Afrikka Pohjois-Amerikka Etelä-Amerikka Aasia Australia-Oseania Muut
Kielet Yhteydenotto

Kittilä, Suomi

Kittilän lentoasema

Leveyspiiri: 67-42N, Pituuspiiri: 024-51E, korkeus merenpinnasta: 196 m


METAR: EFKT 180250Z AUTO 31007KT 9999 OVC047 03/M01 Q1015
TAF: EFKT 171435Z 1715/1718 33008KT CAVOK

Aika: 06:20 (03:20 UTC)

Tämänhetkinen sää

Tämä raportti tehtiin 30 minuuttia sitten, kello 02.50 UTC
Tuuli 7 kn luoteesta
Lämpötila 3°C
Kosteus 75%
Ilmanpaine 1015 hPa
Näkyvyys 10 km tai enemmän
Pilvistä 4700 ft:n korkeudessa

Muuta yksikköjä

Sääennuste

Tämä raportti tehtiin 12 tuntia ja 45 minuuttia sitten, kello 14.35 UTC
Ennuste voimassa 17. päivästä klo 15 UTC - 17. päivään klo 18 UTC
Tuuli 8 kn pohjoisen/luoteesta
Näkyvyys 10 km tai enemmän
ei pilviä alle 1500 m:ssä eikä cumulonimbus-pilviä
Tällä sivustolla oleviin tietoihin sovelletaan vastuuvapauslauseketta
Sää : Eurooppa Afrikka Pohjois-Amerikka Etelä-Amerikka Aasia Australia-Oseania Muut
Satelliittikuvat 10 päivän ennusteetIlmastoMerisää Syklonit Salamointi LentoasematUKK Kielet Yhteydenotto Uutiskirje Muuta